Time;durP1;ratioP1;P1;durP2;ratioP2;P2;SDS_P1;SDS_P2;PMS_P1;PMS_P2;Temp;Humidity;BMP_temperature;BMP_pressure;BME280_temperature;BME280_humidity;BME280_pressure;Samples;Min_cycle;Max_cycle;Signal;HPM_P1;HPM_P2
2023/08/22 00:00:40;;;;;;;5.63;4.15;;;;;;;23.59;100.00;96469.34;5096478;28;20040;-66
2023/08/22 00:03:06;;;;;;;6.25;4.43;;;;;;;23.53;100.00;96480.88;5110852;28;20027;-66
2023/08/22 00:05:32;;;;;;;7.65;4.97;;;;;;;23.53;100.00;96470.13;5101889;28;20107;-66
2023/08/22 00:07:59;;;;;;;6.20;3.60;;;;;;;23.54;100.00;96469.94;5108464;28;20572;-66
2023/08/22 00:10:24;;;;;;;5.40;3.67;;;;;;;23.57;100.00;96466.03;5095065;28;20077;-65
2023/08/22 00:12:50;;;;;;;6.03;3.65;;;;;;;23.58;100.00;96465.00;5099607;28;20023;-66
2023/08/22 00:15:15;;;;;;;8.55;4.05;;;;;;;23.57;100.00;96458.78;5077830;28;20512;-65
2023/08/22 00:17:42;;;;;;;9.60;3.85;;;;;;;23.57;100.00;96460.66;5096279;28;20564;-65
2023/08/22 00:20:08;;;;;;;7.03;4.78;;;;;;;23.51;100.00;96466.81;5107472;28;20044;-65
2023/08/22 00:22:36;;;;;;;7.78;4.95;;;;;;;23.43;100.00;96468.69;5096250;28;20035;-65
2023/08/22 00:25:02;;;;;;;5.80;5.20;;;;;;;23.41;100.00;96472.59;5108931;28;20542;-65
2023/08/22 00:27:28;;;;;;;8.40;4.57;;;;;;;23.37;100.00;96476.72;5104177;27;20388;-66
2023/08/22 00:29:55;;;;;;;5.20;3.90;;;;;;;23.37;100.00;96466.00;5095325;28;20044;-65
2023/08/22 00:32:20;;;;;;;5.60;3.78;;;;;;;23.34;100.00;96456.50;5098327;27;20586;-66
2023/08/22 00:34:46;;;;;;;5.10;4.28;;;;;;;23.31;100.00;96464.94;5106714;27;20036;-65
2023/08/22 00:37:11;;;;;;;4.82;4.40;;;;;;;23.29;100.00;96465.16;5094352;28;20028;-65
2023/08/22 00:39:37;;;;;;;4.63;4.22;;;;;;;23.30;100.00;96466.81;5096014;28;20060;-66
2023/08/22 00:42:02;;;;;;;4.55;4.22;;;;;;;23.27;100.00;96461.00;5106979;28;20022;-65
2023/08/22 00:44:27;;;;;;;5.13;4.00;;;;;;;23.23;100.00;96470.47;5094525;28;20082;-66
2023/08/22 00:46:53;;;;;;;7.10;4.20;;;;;;;23.15;100.00;96468.81;5101128;28;20035;-65
2023/08/22 00:49:19;;;;;;;4.80;3.92;;;;;;;23.14;100.00;96464.47;5107657;27;20050;-66
2023/08/22 00:51:45;;;;;;;4.35;3.90;;;;;;;23.18;100.00;96463.88;5095756;28;20597;-65
2023/08/22 00:54:10;;;;;;;5.75;4.45;;;;;;;23.12;100.00;96461.16;5094730;28;20028;-65
2023/08/22 00:56:36;;;;;;;5.30;4.65;;;;;;;23.01;100.00;96452.69;5101064;28;20148;-65
2023/08/22 00:59:03;;;;;;;4.43;3.97;;;;;;;22.98;100.00;96455.75;5102492;28;20024;-65
2023/08/22 01:01:29;;;;;;;7.78;4.32;;;;;;;22.95;100.00;96460.72;5104471;28;20096;-66
2023/08/22 01:03:55;;;;;;;4.32;3.92;;;;;;;22.92;100.00;96461.13;5095173;28;20019;-66
2023/08/22 01:06:26;;;;;;;6.70;4.65;;;;;;;22.88;100.00;96463.38;5095488;28;20020;-66
2023/08/22 01:08:58;;;;;;;5.22;4.10;;;;;;;22.84;100.00;96465.63;5094998;28;20048;-66
2023/08/22 01:11:35;;;;;;;5.20;4.40;;;;;;;22.69;100.00;96470.31;5098486;28;20110;-65
2023/08/22 01:14:07;;;;;;;5.45;4.22;;;;;;;22.59;100.00;96465.31;5094897;28;20020;-65
2023/08/22 01:16:33;;;;;;;4.80;4.32;;;;;;;22.57;100.00;96467.38;5095264;28;20100;-66
2023/08/22 01:19:01;;;;;;;5.38;4.03;;;;;;;22.56;100.00;96460.34;5099886;28;20024;-65
2023/08/22 01:21:27;;;;;;;4.88;4.15;;;;;;;22.54;100.00;96460.53;5102776;28;20028;-65
2023/08/22 01:23:53;;;;;;;5.22;4.28;;;;;;;22.51;100.00;96455.56;5107423;28;20051;-66
2023/08/22 01:26:18;;;;;;;7.05;4.57;;;;;;;22.42;100.00;96452.19;5104791;27;20110;-66
2023/08/22 01:28:52;;;;;;;4.68;4.28;;;;;;;22.32;100.00;96457.94;5098305;27;20071;-66
2023/08/22 01:31:33;;;;;;;7.18;4.55;;;;;;;22.33;100.00;96458.75;5105979;28;20042;-65
2023/08/22 01:34:06;;;;;;;4.40;3.97;;;;;;;22.36;100.00;96454.84;5116022;27;20082;-65
2023/08/22 01:36:32;;;;;;;6.40;4.00;;;;;;;22.38;100.00;96452.78;5103229;28;20056;-65
2023/08/22 01:39:04;;;;;;;4.65;4.15;;;;;;;22.36;100.00;96455.69;5103248;28;20024;-66
2023/08/22 01:41:29;;;;;;;8.93;4.07;;;;;;;22.39;100.00;96457.13;5107899;28;20019;-65
2023/08/22 01:43:55;;;;;;;5.32;4.80;;;;;;;22.35;100.00;96450.50;5093317;28;20590;-65
2023/08/22 01:46:20;;;;;;;6.22;4.70;;;;;;;22.34;100.00;96460.41;5092827;28;20077;-65
2023/08/22 01:48:46;;;;;;;8.20;6.03;;;;;;;22.35;100.00;96453.19;5113379;28;20103;-65
2023/08/22 01:51:11;;;;;;;6.47;5.97;;;;;;;22.33;100.00;96450.72;5100797;28;20028;-65
2023/08/22 01:53:36;;;;;;;8.05;5.30;;;;;;;22.33;100.00;96451.53;5094911;28;20143;-65
2023/08/22 01:56:02;;;;;;;5.18;4.78;;;;;;;22.36;100.00;96452.16;5105405;28;20032;-65
2023/08/22 01:58:28;;;;;;;4.82;4.35;;;;;;;22.34;100.00;96447.00;5094688;28;20024;-65
2023/08/22 02:00:53;;;;;;;4.70;4.28;;;;;;;22.35;100.00;96451.34;5094197;28;20110;-66
2023/08/22 02:03:20;;;;;;;4.68;4.28;;;;;;;22.33;100.00;96450.72;5094108;28;20023;-65
2023/08/22 02:05:46;;;;;;;7.80;6.65;;;;;;;22.35;100.00;96445.13;5106233;28;20585;-65
2023/08/22 02:08:11;;;;;;;7.47;4.90;;;;;;;22.37;100.00;96441.25;5088512;28;20027;-65
2023/08/22 02:10:36;;;;;;;6.40;5.07;;;;;;;22.36;100.00;96444.13;5105430;28;20129;-66
2023/08/22 02:13:02;;;;;;;5.57;4.63;;;;;;;22.31;100.00;96447.38;5094357;28;20492;-65
2023/08/22 02:15:28;;;;;;;5.35;4.85;;;;;;;22.26;100.00;96445.31;5095026;28;20027;-65
2023/08/22 02:17:53;;;;;;;4.82;4.43;;;;;;;22.21;100.00;96439.69;5094100;28;20452;-65
2023/08/22 02:20:22;;;;;;;9.23;4.40;;;;;;;22.20;100.00;96432.66;5094578;28;20024;-66
2023/08/22 02:22:47;;;;;;;6.57;4.57;;;;;;;22.18;100.00;96429.38;5106798;28;20107;-66
2023/08/22 02:25:13;;;;;;;5.88;4.80;;;;;;;22.09;100.00;96444.78;5093895;28;20106;-65
2023/08/22 02:27:38;;;;;;;4.95;4.55;;;;;;;22.04;100.00;96437.34;5097380;28;20028;-65
2023/08/22 02:30:06;;;;;;;5.18;4.65;;;;;;;22.03;100.00;96434.84;5093699;28;20064;-65
2023/08/22 02:32:32;;;;;;;4.95;4.40;;;;;;;21.99;100.00;96436.28;5099965;28;20618;-65
2023/08/22 02:34:57;;;;;;;7.00;4.68;;;;;;;21.96;100.00;96434.00;5093769;28;20077;-66
2023/08/22 02:37:23;;;;;;;9.00;5.18;;;;;;;21.94;100.00;96436.84;5093979;28;20093;-65
2023/08/22 02:39:48;;;;;;;4.95;4.43;;;;;;;21.93;100.00;96429.84;5105836;28;20028;-66
2023/08/22 02:42:14;;;;;;;8.60;5.10;;;;;;;21.88;100.00;96433.13;5092688;28;20103;-65
2023/08/22 02:44:39;;;;;;;12.98;5.97;;;;;;;21.92;100.00;96428.19;5093551;28;20039;-65
2023/08/22 02:47:05;;;;;;;12.60;5.47;;;;;;;21.96;100.00;96440.16;5094011;28;20031;-65
2023/08/22 02:49:30;;;;;;;15.82;5.20;;;;;;;21.94;100.00;96431.50;5078006;28;20024;-65
2023/08/22 02:51:56;;;;;;;12.70;5.38;;;;;;;21.92;100.00;96428.19;5094634;28;20032;-65
2023/08/22 02:54:21;;;;;;;9.30;4.72;;;;;;;21.92;100.00;96427.38;5103844;28;20032;-65
2023/08/22 02:56:46;;;;;;;5.75;4.60;;;;;;;21.91;100.00;96425.72;5092602;28;20032;-65
2023/08/22 02:59:12;;;;;;;8.10;5.32;;;;;;;21.88;100.00;96429.59;5093565;28;20024;-65
2023/08/22 03:01:37;;;;;;;6.35;5.07;;;;;;;21.91;100.00;96431.88;5093671;28;20055;-65
2023/08/22 03:04:03;;;;;;;6.30;4.30;;;;;;;21.95;100.00;96426.97;5094060;28;20028;-65
2023/08/22 03:06:28;;;;;;;6.47;5.75;;;;;;;21.91;100.00;96428.38;5093917;28;20028;-66
2023/08/22 03:08:54;;;;;;;11.45;8.90;;;;;;;21.83;100.00;96427.50;5096698;28;20031;-65
2023/08/22 03:11:19;;;;;;;7.75;5.68;;;;;;;21.79;100.00;96422.75;5093656;28;20583;-65
2023/08/22 03:13:44;;;;;;;6.88;4.90;;;;;;;21.80;100.00;96425.22;5080122;28;20544;-65
2023/08/22 03:16:10;;;;;;;5.88;4.93;;;;;;;21.77;100.00;96422.09;5101493;28;20024;-66
2023/08/22 03:18:35;;;;;;;5.28;4.78;;;;;;;21.69;100.00;96423.91;5094104;28;20893;-66
2023/08/22 03:21:01;;;;;;;7.35;4.72;;;;;;;21.62;100.00;96423.00;5097027;28;20400;-65
2023/08/22 03:23:26;;;;;;;8.63;4.93;;;;;;;21.57;100.00;96428.94;5099135;28;20027;-65
2023/08/22 03:25:58;;;;;;;7.40;5.10;;;;;;;21.45;100.00;96423.25;5099530;27;20032;-66
2023/08/22 03:28:24;;;;;;;7.78;4.70;;;;;;;21.38;100.00;96429.56;5096694;28;20392;-66
2023/08/22 03:30:55;;;;;;;5.53;4.85;;;;;;;21.33;100.00;96427.47;5096040;28;20062;-65
2023/08/22 03:33:21;;;;;;;5.65;5.05;;;;;;;21.25;100.00;96427.59;5116861;27;20031;-66
2023/08/22 03:35:46;;;;;;;5.10;4.60;;;;;;;21.22;100.00;96425.31;5096721;28;20020;-65
2023/08/22 03:38:12;;;;;;;7.20;4.57;;;;;;;21.25;100.00;96417.75;5101583;28;20050;-65
2023/08/22 03:40:37;;;;;;;5.38;4.88;;;;;;;21.22;100.00;96415.44;5104680;28;20602;-65
2023/08/22 03:43:03;;;;;;;7.47;5.38;;;;;;;21.21;100.00;96413.75;5097188;28;20034;-65
2023/08/22 03:45:28;;;;;;;4.80;4.47;;;;;;;21.17;100.00;96415.19;5107600;28;20038;-66
2023/08/22 03:47:53;;;;;;;5.68;4.60;;;;;;;21.18;100.00;96406.13;5098727;28;20062;-65
2023/08/22 03:50:19;;;;;;;7.63;6.82;;;;;;;21.15;100.00;96410.03;5089636;28;20067;-65
2023/08/22 03:52:44;;;;;;;9.73;6.90;;;;;;;21.13;100.00;96409.41;5102241;28;20565;-65
2023/08/22 03:55:10;;;;;;;7.45;5.15;;;;;;;21.13;100.00;96409.41;5096898;28;20532;-65
2023/08/22 03:57:35;;;;;;;5.70;5.20;;;;;;;21.13;100.00;96404.03;5096434;28;20468;-65
2023/08/22 04:00:00;;;;;;;6.13;5.10;;;;;;;21.14;100.00;96405.69;5096338;28;20035;-65
2023/08/22 04:02:26;;;;;;;7.70;4.82;;;;;;;21.11;100.00;96411.44;5096209;28;20095;-66
2023/08/22 04:04:51;;;;;;;7.45;4.65;;;;;;;21.13;100.00;96408.56;5096483;28;20020;-65
2023/08/22 04:07:16;;;;;;;8.93;5.07;;;;;;;21.21;100.00;96396.88;5100409;28;20020;-65
2023/08/22 04:09:42;;;;;;;5.50;4.47;;;;;;;21.23;100.00;96395.69;5096469;28;20031;-65
2023/08/22 04:12:08;;;;;;;8.90;4.82;;;;;;;21.20;100.00;96400.59;5099993;28;20102;-65
2023/08/22 04:14:33;;;;;;;6.80;5.32;;;;;;;21.18;100.00;96396.25;5105996;28;20023;-65
2023/08/22 04:16:58;;;;;;;8.45;4.97;;;;;;;21.21;100.00;96388.84;5094691;28;20019;-65
2023/08/22 04:19:24;;;;;;;8.18;4.55;;;;;;;21.24;100.00;96396.50;5096200;28;20473;-65
2023/08/22 04:21:50;;;;;;;6.50;5.18;;;;;;;21.24;100.00;96392.00;5099497;28;20618;-65
2023/08/22 04:24:15;;;;;;;5.53;4.80;;;;;;;21.18;100.00;96396.25;5095734;28;20102;-65
2023/08/22 04:26:41;;;;;;;9.43;5.38;;;;;;;21.16;100.00;96392.94;5106982;27;20024;-65
2023/08/22 04:29:06;;;;;;;5.85;5.25;;;;;;;21.15;100.00;96393.97;5105111;28;20052;-65
2023/08/22 04:31:31;;;;;;;8.05;5.00;;;;;;;21.07;100.00;96398.63;5099769;28;20496;-65
2023/08/22 04:33:57;;;;;;;8.48;5.53;;;;;;;21.01;100.00;96394.84;5109339;27;20447;-65
2023/08/22 04:36:22;;;;;;;7.47;5.57;;;;;;;21.01;100.00;96393.03;5099525;28;20517;-65
2023/08/22 04:38:49;;;;;;;7.32;4.95;;;;;;;20.99;100.00;96391.53;5077328;28;20035;-65
2023/08/22 04:41:16;;;;;;;11.05;5.05;;;;;;;20.96;100.00;96391.94;5095554;28;20040;-65
2023/08/22 04:43:41;;;;;;;9.35;5.70;;;;;;;20.95;100.00;96396.44;5095847;28;20099;-65
2023/08/22 04:46:06;;;;;;;6.63;5.10;;;;;;;20.97;100.00;96401.59;5106524;28;20122;-65
2023/08/22 04:48:32;;;;;;;7.88;5.47;;;;;;;21.01;100.00;96400.19;5095081;28;20034;-65
2023/08/22 04:50:57;;;;;;;6.88;5.20;;;;;;;20.93;100.00;96393.13;5103760;28;20023;-65
2023/08/22 04:53:24;;;;;;;10.15;5.30;;;;;;;20.89;100.00;96381.16;5095185;28;20043;-65
2023/08/22 04:55:49;;;;;;;9.73;5.40;;;;;;;20.89;100.00;96383.81;5095142;28;20043;-65
2023/08/22 04:58:15;;;;;;;7.00;5.25;;;;;;;20.90;100.00;96377.44;5095174;28;20161;-66
2023/08/22 05:00:41;;;;;;;19.02;5.95;;;;;;;20.91;100.00;96376.44;5094841;28;20463;-65
2023/08/22 05:03:06;;;;;;;5.97;5.25;;;;;;;20.93;100.00;96365.53;5095137;28;20024;-65
2023/08/22 05:05:31;;;;;;;10.25;5.40;;;;;;;20.94;100.00;96370.69;5104705;28;20810;-65
2023/08/22 05:07:57;;;;;;;10.50;5.57;;;;;;;20.84;100.00;96367.53;5094811;28;20024;-64
2023/08/22 05:10:23;;;;;;;6.68;4.95;;;;;;;20.79;100.00;96353.84;5095004;28;20080;-65
2023/08/22 05:12:49;;;;;;;12.65;5.60;;;;;;;20.77;100.00;96335.31;5106397;28;20083;-65
2023/08/22 05:15:14;;;;;;;10.85;6.38;;;;;;;20.77;100.00;96313.91;5110064;27;20016;-65
2023/08/22 05:17:40;;;;;;;21.13;6.68;;;;;;;20.78;100.00;96314.72;5094898;28;20081;-65
2023/08/22 05:20:06;;;;;;;9.73;5.65;;;;;;;20.79;100.00;96316.41;5102906;28;20030;-65
2023/08/22 05:22:32;;;;;;;9.32;5.68;;;;;;;20.82;100.00;96316.03;5104213;28;20020;-65
2023/08/22 05:24:58;;;;;;;12.20;5.72;;;;;;;20.78;100.00;96326.25;5108156;28;20088;-65
2023/08/22 05:27:23;;;;;;;20.40;6.35;;;;;;;20.80;100.00;96318.09;5100371;27;20039;-65
2023/08/22 05:29:49;;;;;;;8.60;6.38;;;;;;;20.76;100.00;96317.59;5108302;28;20414;-65
2023/08/22 05:32:14;;;;;;;10.63;6.55;;;;;;;20.73;100.00;96315.31;5095396;27;20035;-65
2023/08/22 05:34:40;;;;;;;10.48;5.43;;;;;;;20.72;100.00;96313.66;5112301;27;20106;-65
2023/08/22 05:37:05;;;;;;;17.48;6.40;;;;;;;20.71;100.00;96310.13;5104197;28;20018;-65
2023/08/22 05:39:30;;;;;;;13.90;6.35;;;;;;;20.58;100.00;96305.47;5097043;28;20050;-65
2023/08/22 05:41:56;;;;;;;11.45;6.05;;;;;;;20.59;100.00;96300.97;5105835;28;20028;-65
2023/08/22 05:44:21;;;;;;;13.73;5.95;;;;;;;20.67;100.00;96300.84;5097637;28;20077;-65
2023/08/22 05:46:47;;;;;;;15.80;6.30;;;;;;;20.64;100.00;96293.19;5094384;28;20099;-65
2023/08/22 05:49:12;;;;;;;16.92;7.13;;;;;;;20.70;100.00;96291.63;5099027;27;20582;-65
2023/08/22 05:51:37;;;;;;;12.77;6.30;;;;;;;20.68;100.00;96288.31;5104447;28;20073;-65
2023/08/22 05:54:03;;;;;;;10.57;5.90;;;;;;;20.61;100.00;96290.91;5093790;28;20040;-65
2023/08/22 05:56:28;;;;;;;11.00;5.85;;;;;;;20.65;100.00;96283.31;5103664;28;20027;-65
2023/08/22 05:58:54;;;;;;;13.63;6.60;;;;;;;20.70;100.00;96272.91;5097472;28;20028;-65
2023/08/22 06:01:19;;;;;;;13.60;6.45;;;;;;;20.69;100.00;96280.06;5092585;28;20023;-65
2023/08/22 06:03:45;;;;;;;13.18;6.47;;;;;;;20.74;100.00;96276.84;5096546;28;20073;-65
2023/08/22 06:06:10;;;;;;;7.82;5.80;;;;;;;20.72;100.00;96278.88;5103680;28;20020;-65
2023/08/22 06:08:35;;;;;;;7.45;5.78;;;;;;;20.69;100.00;96280.06;5097980;27;20035;-65
2023/08/22 06:11:01;;;;;;;9.27;5.97;;;;;;;20.68;100.00;96281.09;5103456;28;20063;-65
2023/08/22 06:13:26;;;;;;;13.88;11.63;;;;;;;20.67;100.00;96275.91;5097022;28;20020;-65
2023/08/22 06:15:52;;;;;;;12.13;8.20;;;;;;;20.70;100.00;96264.88;5102356;28;20023;-65
2023/08/22 06:18:17;;;;;;;15.13;6.55;;;;;;;20.74;100.00;96260.78;5100504;28;20020;-65
2023/08/22 06:20:43;;;;;;;6.82;6.18;;;;;;;20.87;100.00;96252.88;5102486;28;20043;-64
2023/08/22 06:23:09;;;;;;;6.30;5.57;;;;;;;21.07;100.00;96259.44;5096799;28;20020;-65
2023/08/22 06:25:35;;;;;;;9.30;5.13;;;;;;;21.28;100.00;96269.25;5094058;28;20025;-65
2023/08/22 06:28:00;;;;;;;9.68;5.70;;;;;;;21.50;100.00;96275.38;5096622;28;20027;-65
2023/08/22 06:30:27;;;;;;;6.43;5.72;;;;;;;21.66;100.00;96276.94;5093753;28;20180;-65
2023/08/22 06:32:52;;;;;;;7.70;6.53;;;;;;;21.83;100.00;96290.00;5096479;28;20074;-65
2023/08/22 06:35:18;;;;;;;8.52;7.65;;;;;;;22.01;100.00;96281.41;5094051;28;20024;-65
2023/08/22 06:37:43;;;;;;;13.43;7.60;;;;;;;22.19;100.00;96294.25;5100038;28;20055;-65
2023/08/22 06:40:09;;;;;;;7.38;6.40;;;;;;;22.36;100.00;96304.66;5093382;28;20111;-65
2023/08/22 06:42:34;;;;;;;6.10;5.28;;;;;;;22.55;100.00;96314.63;5105455;28;20080;-65
2023/08/22 06:45:00;;;;;;;7.20;5.07;;;;;;;22.75;100.00;96321.91;5091976;28;20055;-65
2023/08/22 06:47:25;;;;;;;6.28;4.70;;;;;;;22.92;100.00;96332.25;5092304;28;20582;-65
2023/08/22 06:49:50;;;;;;;10.13;5.15;;;;;;;23.12;100.00;96329.56;5096755;28;20073;-65
2023/08/22 06:52:16;;;;;;;6.93;5.00;;;;;;;23.37;100.00;96342.41;5093728;28;20031;-65
2023/08/22 06:54:41;;;;;;;10.25;5.10;;;;;;;23.57;100.00;96343.22;5097801;28;20024;-65
2023/08/22 06:57:07;;;;;;;5.45;4.97;;;;;;;23.73;100.00;96344.63;5097481;28;20038;-65
2023/08/22 06:59:33;;;;;;;7.28;4.60;;;;;;;23.93;100.00;96345.66;5097821;28;20142;-64
2023/08/22 07:01:58;;;;;;;8.57;5.18;;;;;;;24.14;100.00;96358.88;5100418;28;20079;-65
2023/08/22 07:04:24;;;;;;;11.15;5.13;;;;;;;24.48;100.00;96361.41;5097119;28;20023;-65
2023/08/22 07:06:50;;;;;;;6.10;4.63;;;;;;;24.80;100.00;96358.78;5097986;28;20023;-64
2023/08/22 07:09:15;;;;;;;7.82;4.50;;;;;;;25.13;100.00;96371.22;5097155;28;20408;-65
2023/08/22 07:11:42;;;;;;;5.15;4.65;;;;;;;25.55;100.00;96369.91;5098469;28;20055;-65
2023/08/22 07:14:07;;;;;;;8.55;4.57;;;;;;;25.87;100.00;96365.25;5097520;28;20028;-65
2023/08/22 07:16:33;;;;;;;7.30;4.68;;;;;;;26.21;100.00;96359.53;5099940;28;20077;-64
2023/08/22 07:18:58;;;;;;;9.77;4.65;;;;;;;26.53;100.00;96366.63;5096834;28;20027;-65
2023/08/22 07:21:23;;;;;;;6.00;4.13;;;;;;;26.77;100.00;96367.53;5079937;28;20041;-65
2023/08/22 07:23:49;;;;;;;9.68;4.70;;;;;;;26.88;100.00;96368.66;5096768;28;20030;-65
2023/08/22 07:26:14;;;;;;;6.47;4.80;;;;;;;27.16;100.00;96369.91;5096909;28;20031;-65
2023/08/22 07:28:39;;;;;;;8.70;4.45;;;;;;;27.19;100.00;96376.72;5095072;28;20043;-65
2023/08/22 07:31:06;;;;;;;4.65;4.25;;;;;;;27.50;100.00;96388.28;5107608;28;20047;-65
2023/08/22 07:33:31;;;;;;;5.80;4.53;;;;;;;27.82;100.00;96386.09;5106910;27;20034;-65
2023/08/22 07:35:57;;;;;;;6.40;4.13;;;;;;;27.90;100.00;96382.22;5101580;28;20111;-65
2023/08/22 07:38:22;;;;;;;5.40;4.18;;;;;;;27.99;100.00;96383.53;5097107;28;20032;-65
2023/08/22 07:40:48;;;;;;;9.10;4.78;;;;;;;28.25;100.00;96381.41;5108081;28;20153;-65
2023/08/22 07:43:13;;;;;;;6.72;4.30;;;;;;;28.42;100.00;96372.56;5096438;28;20031;-65
2023/08/22 07:45:38;;;;;;;8.23;4.40;;;;;;;28.65;100.00;96373.53;5100148;28;20031;-65
2023/08/22 07:48:04;;;;;;;6.32;4.55;;;;;;;28.94;100.00;96384.41;5096742;28;20020;-65
2023/08/22 07:50:30;;;;;;;4.82;4.03;;;;;;;28.92;100.00;96389.25;5097980;27;20827;-65
2023/08/22 07:52:57;;;;;;;4.70;4.30;;;;;;;29.02;100.00;96379.41;5096765;28;20475;-65
2023/08/22 07:55:23;;;;;;;5.88;4.03;;;;;;;29.16;100.00;96381.78;5096712;28;20423;-65
2023/08/22 07:57:50;;;;;;;4.47;3.63;;;;;;;28.99;100.00;96393.44;5109409;28;20656;-65
2023/08/22 08:00:16;;;;;;;5.35;4.30;;;;;;;29.10;100.00;96399.88;5097498;28;20062;-65
2023/08/22 08:02:41;;;;;;;5.45;4.40;;;;;;;29.21;100.00;96402.75;5106317;28;20028;-65
2023/08/22 08:05:07;;;;;;;6.72;3.70;;;;;;;29.52;100.00;96397.91;5095598;28;20553;-65
2023/08/22 08:07:34;;;;;;;7.10;4.00;;;;;;;29.92;100.00;96401.50;5098420;28;20068;-65
2023/08/22 08:10:00;;;;;;;6.38;4.00;;;;;;;30.30;100.00;96397.19;5096258;28;20126;-65
2023/08/22 08:12:25;;;;;;;6.05;3.92;;;;;;;30.52;100.00;96397.16;5096402;28;20016;-65
2023/08/22 08:14:51;;;;;;;4.95;4.00;;;;;;;30.40;100.00;96405.44;5101047;28;20344;-65
2023/08/22 08:17:18;;;;;;;7.53;3.90;;;;;;;30.78;100.00;96397.50;5096502;28;20020;-65
2023/08/22 08:19:43;;;;;;;5.68;3.90;;;;;;;30.90;100.00;96397.34;5096209;28;20027;-65
2023/08/22 08:22:08;;;;;;;4.47;4.07;;;;;;;30.74;100.00;96396.38;5096031;28;20016;-65
2023/08/22 08:24:34;;;;;;;6.20;3.63;;;;;;;30.87;100.00;96395.97;5096016;28;20031;-65
2023/08/22 08:27:00;;;;;;;5.07;3.55;;;;;;;31.08;100.00;96387.19;5112803;27;20081;-65
2023/08/22 08:29:25;;;;;;;5.55;4.03;;;;;;;31.15;100.00;96391.34;5108132;28;20070;-65
2023/08/22 08:31:54;;;;;;;6.07;3.85;;;;;;;31.08;100.00;96388.03;5107920;28;20081;-65
2023/08/22 08:34:19;;;;;;;6.43;3.92;;;;;;;31.20;100.00;96390.63;5102960;27;20107;-66
2023/08/22 08:36:44;;;;;;;3.80;3.50;;;;;;;31.57;100.00;96386.31;5096483;28;20051;-65
2023/08/22 08:39:10;;;;;;;4.35;3.60;;;;;;;31.66;100.00;96379.28;5108050;28;20023;-65
2023/08/22 08:41:39;;;;;;;7.03;3.95;;;;;;;31.83;100.00;96367.47;5094777;28;20024;-65
2023/08/22 08:44:05;;;;;;;6.57;3.58;;;;;;;31.92;100.00;96375.97;5099605;28;20015;-65
2023/08/22 08:46:31;;;;;;;5.10;3.80;;;;;;;32.06;100.00;96371.72;5108714;28;20023;-65
2023/08/22 08:48:57;;;;;;;5.05;3.50;;;;;;;32.45;100.00;96362.38;5098045;27;20020;-65
2023/08/22 08:51:23;;;;;;;4.65;3.25;;;;;;;32.32;100.00;96362.81;5095629;28;20099;-66
2023/08/22 08:53:50;;;;;;;3.90;3.55;;;;;;;32.36;100.00;96362.06;5095662;28;20045;-65
2023/08/22 08:56:16;;;;;;;5.40;3.95;;;;;;;32.48;100.00;96361.84;5095841;28;20051;-65
2023/08/22 08:58:43;;;;;;;5.50;4.22;;;;;;;32.67;100.00;96358.66;5099558;28;20023;-65
2023/08/22 09:01:10;;;;;;;5.25;3.53;;;;;;;32.67;100.00;96361.38;5095506;28;20134;-65
2023/08/22 09:03:36;;;;;;;3.65;3.33;;;;;;;32.54;100.00;96352.59;5095196;28;20024;-65
2023/08/22 09:06:01;;;;;;;4.00;3.47;;;;;;;32.71;100.00;96357.00;5095274;28;20024;-65
2023/08/22 09:08:26;;;;;;;5.35;3.40;;;;;;;32.88;100.00;96359.53;5093878;28;20017;-65
2023/08/22 09:10:53;;;;;;;6.38;3.67;;;;;;;32.90;100.00;96356.53;5095203;28;20099;-65
2023/08/22 09:13:29;;;;;;;11.52;3.30;;;;;;;32.72;100.00;96353.19;5098867;28;20015;-66
2023/08/22 09:15:59;;;;;;;4.90;3.90;;;;;;;32.79;100.00;96359.19;5094347;28;20024;-65
2023/08/22 09:18:25;;;;;;;5.38;3.50;;;;;;;33.02;100.00;96359.81;5095066;28;20027;-65
2023/08/22 09:20:51;;;;;;;5.63;3.58;;;;;;;32.91;100.00;96358.19;5093908;28;20103;-65
2023/08/22 09:23:30;;;;;;;10.40;3.30;;;;;;;32.77;100.00;96357.84;5094990;28;20023;-66
2023/08/22 09:25:55;;;;;;;5.38;3.83;;;;;;;32.80;100.00;96355.38;5100600;27;20023;-65
2023/08/22 09:28:22;;;;;;;4.55;3.50;;;;;;;32.64;100.00;96354.53;5107743;28;20126;-65
2023/08/22 09:30:48;;;;;;;4.45;3.58;;;;;;;32.60;100.00;96350.72;5094550;28;20067;-65
2023/08/22 09:33:15;;;;;;;3.83;3.47;;;;;;;32.81;100.00;96350.78;5099364;27;20035;-65
2023/08/22 09:35:40;;;;;;;9.88;3.40;;;;;;;32.78;100.00;96348.59;5094538;28;20525;-65
2023/08/22 09:38:10;;;;;;;3.65;3.35;;;;;;;33.09;100.00;96352.22;5105668;28;20015;-66
2023/08/22 09:40:36;;;;;;;3.42;3.13;;;;;;;33.41;100.00;96348.41;5103239;28;20132;-66
2023/08/22 09:43:02;;;;;;;3.58;3.13;;;;;;;33.72;100.00;96342.97;5104109;27;20141;-66
2023/08/22 09:45:31;;;;;;;4.60;3.40;;;;;;;33.60;100.00;96344.31;5105455;27;20105;-66
2023/08/22 09:48:00;;;;;;;3.78;3.30;;;;;;;33.63;100.00;96343.78;5107694;27;20036;-66
2023/08/22 09:50:28;;;;;;;4.03;3.30;;;;;;;33.64;100.00;96342.69;5109617;27;20015;-65
2023/08/22 09:52:55;;;;;;;5.53;3.58;;;;;;;33.76;100.00;96337.75;5104791;27;20469;-66
2023/08/22 09:55:21;;;;;;;4.28;3.17;;;;;;;33.43;100.00;96338.06;5109657;27;20444;-66
2023/08/22 09:57:48;;;;;;;3.78;3.15;;;;;;;33.80;100.00;96329.84;5095086;28;20055;-65
2023/08/22 10:00:14;;;;;;;4.70;3.05;;;;;;;34.45;100.00;96329.09;5078611;28;20064;-65
2023/08/22 10:02:41;;;;;;;4.60;3.53;;;;;;;34.46;100.00;96327.16;5111182;28;20058;-65
2023/08/22 10:05:09;;;;;;;6.10;3.40;;;;;;;34.76;100.00;96323.47;5100640;28;20020;-65
2023/08/22 10:07:35;;;;;;;3.25;2.95;;;;;;;34.70;100.00;96319.16;5094192;28;20028;-65
2023/08/22 10:10:00;;;;;;;5.60;3.60;;;;;;;34.41;100.00;96315.16;5096821;28;20084;-65
2023/08/22 10:12:27;;;;;;;7.72;3.15;;;;;;;34.44;100.00;96316.53;5098302;28;20024;-65
2023/08/22 10:14:59;;;;;;;5.55;3.70;;;;;;;34.34;100.00;96305.63;5096479;28;20024;-65
2023/08/22 10:17:27;;;;;;;3.25;2.90;;;;;;;34.46;100.00;96303.41;5114597;28;20028;-65
2023/08/22 10:20:04;;;;;;;4.28;3.20;;;;;;;34.69;100.00;96303.84;5094069;28;20034;-65
2023/08/22 10:22:33;;;;;;;8.45;3.72;;;;;;;34.81;100.00;96304.31;5100547;28;20044;-65
2023/08/22 10:25:07;;;;;;;5.60;3.35;;;;;;;34.89;100.00;96305.63;5093923;28;20042;-64
2023/08/22 10:27:37;;;;;;;4.38;3.33;;;;;;;34.97;100.00;96299.56;5095679;28;20020;-65
2023/08/22 10:30:12;;;;;;;5.03;3.60;;;;;;;34.92;100.00;96296.03;5093658;28;20052;-65
2023/08/22 10:32:37;;;;;;;5.43;3.92;;;;;;;34.84;100.00;96292.81;5098843;28;20576;-65
2023/08/22 10:35:05;;;;;;;6.82;3.60;;;;;;;34.74;100.00;96298.34;5092712;28;20101;-65
2023/08/22 10:37:31;;;;;;;4.85;3.40;;;;;;;34.93;100.00;96289.47;5101174;28;20016;-64
2023/08/22 10:40:07;;;;;;;8.80;3.70;;;;;;;35.03;100.00;96283.94;5106422;28;20036;-64
2023/08/22 10:42:32;;;;;;;3.95;3.40;;;;;;;35.19;100.00;96286.56;5102820;28;20016;-65
2023/08/22 10:44:58;;;;;;;4.30;3.50;;;;;;;35.31;100.00;96283.44;5093771;28;20472;-65
2023/08/22 10:47:30;;;;;;;4.18;3.25;;;;;;;35.56;100.00;96279.69;5093899;28;20047;-65
2023/08/22 10:49:57;;;;;;;4.57;3.47;;;;;;;35.72;100.00;96276.81;5096695;28;20024;-65
2023/08/22 10:52:36;;;;;;;5.32;3.65;;;;;;;35.70;100.00;96272.44;5093569;28;20020;-64
2023/08/22 10:55:08;;;;;;;5.05;3.13;;;;;;;35.63;100.00;96269.22;5093556;28;20031;-65
2023/08/22 10:57:38;;;;;;;4.15;3.47;;;;;;;35.73;100.00;96262.00;5093463;28;20027;-64
2023/08/22 11:00:12;;;;;;;4.03;3.00;;;;;;;35.69;100.00;96257.09;5093586;28;20020;-64
2023/08/22 11:02:39;;;;;;;6.15;3.05;;;;;;;35.58;100.00;96255.56;5094134;28;20024;-65
2023/08/22 11:05:12;;;;;;;5.15;3.60;;;;;;;36.00;100.00;96247.69;5094329;28;20043;-64
2023/08/22 11:07:40;;;;;;;5.43;3.27;;;;;;;36.36;100.00;96243.69;5114115;28;20024;-65
2023/08/22 11:10:16;;;;;;;3.83;3.00;;;;;;;36.71;100.00;96244.31;5111715;28;20261;-64
2023/08/22 11:12:45;;;;;;;5.22;3.15;;;;;;;36.78;100.00;96241.22;5097238;28;20035;-64
2023/08/22 11:15:14;;;;;;;4.07;3.00;;;;;;;36.82;100.00;96236.75;5093581;28;20020;-64
2023/08/22 11:17:40;;;;;;;5.75;3.00;;;;;;;37.03;100.00;96228.22;5093314;28;20497;-65
2023/08/22 11:20:10;;;;;;;5.10;3.50;;;;;;;36.91;100.00;96228.66;5102977;28;20564;-65